createdAt,value
2018-03-07T00:00:17.139Z,27.4
2018-03-07T00:01:06.652Z,27.4
2018-03-07T00:01:57.288Z,27.4
2018-03-07T00:02:47.288Z,25.6
2018-03-07T00:03:37.089Z,24.6
2018-03-07T00:04:27.271Z,24
2018-03-07T00:05:16.065Z,23.7
2018-03-07T00:06:07.047Z,23.5
2018-03-07T00:06:57.073Z,23.4
2018-03-07T00:07:46.861Z,23.3
2018-03-07T00:08:37.430Z,23.2
2018-03-07T00:09:26.976Z,23.1
2018-03-07T00:10:17.844Z,23.4
2018-03-07T00:11:07.646Z,23.9
2018-03-07T00:11:57.654Z,24.3
2018-03-07T00:12:47.728Z,24.8
2018-03-07T00:13:37.234Z,25.2
2018-03-07T00:14:28.166Z,25.6
2018-03-07T00:15:17.063Z,25.9
2018-03-07T00:16:08.231Z,26.1
2018-03-07T00:16:58.018Z,26.4
2018-03-07T00:17:48.060Z,26.6
2018-03-07T00:18:37.808Z,26.8
2018-03-07T00:19:28.116Z,26.9
2018-03-07T00:20:18.731Z,27.1
2018-03-07T00:21:08.793Z,27.2
2018-03-07T00:21:58.179Z,27.3
2018-03-07T00:22:48.693Z,27.4
2018-03-07T00:23:39.219Z,27.4
2018-03-07T00:24:28.747Z,27.5
2018-03-07T00:25:19.354Z,27.5
2018-03-07T00:26:09.397Z,27.5
2018-03-07T00:26:59.945Z,27.6
2018-03-07T00:27:49.180Z,27.6
2018-03-07T00:28:39.781Z,27.6
2018-03-07T00:29:30.125Z,27.6
2018-03-07T00:30:19.114Z,27.5
2018-03-07T00:31:10.205Z,27.5
2018-03-07T00:31:59.734Z,27.5
2018-03-07T00:32:49.799Z,27
2018-03-07T00:33:40.445Z,25.1
2018-03-07T00:34:29.390Z,24.3
2018-03-07T00:35:20.235Z,23.9
2018-03-07T00:36:10.295Z,23.6
2018-03-07T00:37:00.352Z,23.4
2018-03-07T00:37:50.647Z,23.3
2018-03-07T00:38:40.724Z,23.2
2018-03-07T00:39:30.375Z,23.1
2018-03-07T00:40:20.825Z,23.2
2018-03-07T00:41:09.891Z,23.7
2018-03-07T00:42:00.171Z,24.1
2018-03-07T00:42:50.532Z,24.5
2018-03-07T00:43:38.728Z,24.9
2018-03-07T00:44:29.186Z,25.3
2018-03-07T00:45:19.161Z,25.7
2018-03-07T00:46:09.476Z,26
2018-03-07T00:46:59.679Z,26.3
2018-03-07T00:47:50.066Z,26.5
2018-03-07T00:48:39.078Z,26.7
2018-03-07T00:49:29.339Z,26.9
2018-03-07T00:50:18.776Z,27.1
2018-03-07T00:51:09.464Z,27.1
2018-03-07T00:51:59.639Z,27.3
2018-03-07T00:52:50.451Z,27.3
2018-03-07T00:53:39.508Z,27.4
2018-03-07T00:54:29.979Z,27.4
2018-03-07T00:55:20.588Z,27.4
2018-03-07T00:56:10.913Z,27.5
2018-03-07T00:57:01.551Z,27.5
2018-03-07T00:57:51.048Z,27.6
2018-03-07T00:58:41.103Z,27.5
2018-03-07T00:59:31.403Z,27.6
2018-03-07T01:00:21.458Z,27.5
2018-03-07T01:01:11.815Z,27.5
2018-03-07T01:02:01.341Z,27.5
2018-03-07T01:02:51.676Z,27.5
2018-03-07T01:03:41.137Z,25.8
2018-03-07T01:04:31.505Z,24.6
2018-03-07T01:05:21.560Z,24
2018-03-07T01:06:12.167Z,23.6
2018-03-07T01:07:02.691Z,23.4
2018-03-07T01:07:51.697Z,23.3
2018-03-07T01:08:42.042Z,23.1
2018-03-07T01:09:32.313Z,23.1
2018-03-07T01:10:21.888Z,23
2018-03-07T01:11:11.942Z,23.2
2018-03-07T01:12:02.583Z,23.7
2018-03-07T01:12:52.525Z,24.1
2018-03-07T01:13:42.985Z,24.6
2018-03-07T01:14:32.750Z,25
2018-03-07T01:15:22.534Z,25.4
2018-03-07T01:16:12.734Z,25.7
2018-03-07T01:17:03.150Z,26
2018-03-07T01:17:51.853Z,26.3
2018-03-07T01:18:42.977Z,26.5
2018-03-07T01:19:33.385Z,26.7
2018-03-07T01:20:23.333Z,26.9
2018-03-07T01:21:13.408Z,27
2018-03-07T01:22:03.453Z,27.1
2018-03-07T01:22:53.214Z,27.3
2018-03-07T01:23:43.572Z,27.3
2018-03-07T01:24:33.684Z,27.3
2018-03-07T01:25:23.751Z,27.4
2018-03-07T01:26:13.484Z,27.4
2018-03-07T01:27:03.555Z,27.4
2018-03-07T01:27:52.699Z,27.5
2018-03-07T01:28:43.626Z,27.5
2018-03-07T01:29:33.400Z,27.5
2018-03-07T01:30:24.042Z,27.5
2018-03-07T01:31:12.736Z,27.5
2018-03-07T01:32:03.913Z,27.4
2018-03-07T01:32:53.421Z,27.4
2018-03-07T01:33:43.751Z,27.4
2018-03-07T01:34:33.538Z,25.3
2018-03-07T01:35:23.637Z,24.3
2018-03-07T01:36:13.943Z,23.8
2018-03-07T01:37:04.201Z,23.5
2018-03-07T01:37:54.583Z,23.3
2018-03-07T01:38:44.884Z,23.2
2018-03-07T01:39:34.398Z,23.1
2018-03-07T01:40:24.721Z,23
2018-03-07T01:41:14.468Z,22.9
2018-03-07T01:42:04.843Z,23.3
2018-03-07T01:42:54.601Z,23.8
2018-03-07T01:43:44.380Z,24.2
2018-03-07T01:44:35.003Z,24.6
2018-03-07T01:45:24.496Z,25.1
2018-03-07T01:46:14.853Z,25.4
2018-03-07T01:47:04.395Z,25.8
2018-03-07T01:47:54.980Z,26
2018-03-07T01:48:45.302Z,26.3
2018-03-07T01:49:35.084Z,26.5
2018-03-07T01:50:25.695Z,26.7
2018-03-07T01:51:15.193Z,26.9
2018-03-07T01:52:05.210Z,27
2018-03-07T01:52:54.709Z,27.1
2018-03-07T01:53:45.063Z,27.3
2018-03-07T01:54:35.665Z,27.3
2018-03-07T01:55:25.755Z,27.3
2018-03-07T01:56:15.510Z,27.4
2018-03-07T01:57:05.587Z,27.4
2018-03-07T01:57:55.921Z,27.4
2018-03-07T01:58:45.965Z,27.5
2018-03-07T01:59:35.488Z,27.5
2018-03-07T02:00:25.832Z,27.5
2018-03-07T02:01:16.432Z,27.5
2018-03-07T02:02:05.912Z,27.4
2018-03-07T02:02:55.823Z,27.4
2018-03-07T02:03:46.339Z,27.4
2018-03-07T02:04:35.527Z,26.5
2018-03-07T02:05:25.857Z,24.9
2018-03-07T02:06:16.238Z,24.1
2018-03-07T02:07:05.394Z,23.6
2018-03-07T02:07:55.484Z,23.4
2018-03-07T02:08:46.172Z,23.2
2018-03-07T02:09:36.481Z,23.1
2018-03-07T02:10:26.804Z,23
2018-03-07T02:11:16.833Z,22.9
2018-03-07T02:12:06.887Z,22.9
2018-03-07T02:12:55.361Z,23.3
2018-03-07T02:13:46.568Z,23.7
2018-03-07T02:14:36.031Z,24.2
2018-03-07T02:15:25.862Z,24.6
2018-03-07T02:16:15.621Z,25.1
2018-03-07T02:17:06.307Z,25.4
2018-03-07T02:17:55.601Z,25.8
2018-03-07T02:18:46.335Z,26.1
2018-03-07T02:19:35.500Z,26.3
2018-03-07T02:20:26.143Z,26.5
2018-03-07T02:21:15.691Z,26.7
2018-03-07T02:22:06.383Z,26.9
2018-03-07T02:22:55.867Z,27.1
2018-03-07T02:23:45.093Z,27.1
2018-03-07T02:24:35.574Z,27.3
2018-03-07T02:25:26.175Z,27.3
2018-03-07T02:26:15.951Z,27.4
2018-03-07T02:27:05.954Z,27.4
2018-03-07T02:27:57.013Z,27.4
2018-03-07T02:28:46.334Z,27.4
2018-03-07T02:29:37.288Z,27.5
2018-03-07T02:30:26.081Z,27.5
2018-03-07T02:31:17.314Z,27.5
2018-03-07T02:32:07.290Z,27.4
2018-03-07T02:32:57.051Z,27.4
2018-03-07T02:33:47.578Z,27.5
2018-03-07T02:34:36.588Z,27.4
2018-03-07T02:35:27.767Z,27.3
2018-03-07T02:36:17.365Z,25.1
2018-03-07T02:37:07.682Z,24.2
2018-03-07T02:37:56.318Z,23.7
2018-03-07T02:38:47.816Z,23.4
2018-03-07T02:39:37.389Z,23.2
2018-03-07T02:40:27.851Z,23.1
2018-03-07T02:41:17.614Z,23
2018-03-07T02:42:06.799Z,22.9
2018-03-07T02:42:57.239Z,22.9
2018-03-07T02:43:48.947Z,23
2018-03-07T02:44:37.052Z,23.5
2018-03-07T02:45:28.700Z,23.9
2018-03-07T02:46:18.204Z,24.4
2018-03-07T02:47:08.520Z,24.8
2018-03-07T02:47:59.135Z,25.2
2018-03-07T02:48:49.460Z,25.6
2018-03-07T02:49:39.274Z,25.9
2018-03-07T02:50:29.265Z,26.1
2018-03-07T02:51:19.333Z,26.3
2018-03-07T02:52:09.992Z,26.6
2018-03-07T02:52:59.476Z,26.8
2018-03-07T02:53:49.577Z,26.9
2018-03-07T02:54:39.583Z,27
2018-03-07T02:55:29.694Z,27.1
2018-03-07T02:56:19.422Z,27.2
2018-03-07T02:57:09.722Z,27.3
2018-03-07T02:57:59.581Z,27.3
2018-03-07T02:58:49.826Z,27.3
2018-03-07T02:59:39.905Z,27.4
2018-03-07T03:00:29.781Z,27.4
2018-03-07T03:01:20.310Z,27.4
2018-03-07T03:02:10.360Z,27.4
2018-03-07T03:02:59.897Z,27.4
2018-03-07T03:03:49.940Z,27.4
2018-03-07T03:04:40.535Z,27.4
2018-03-07T03:05:30.078Z,27.4
2018-03-07T03:06:20.084Z,27.3
2018-03-07T03:07:10.134Z,25.1
2018-03-07T03:08:00.465Z,24.2
2018-03-07T03:08:50.554Z,23.7
2018-03-07T03:09:40.801Z,23.4
2018-03-07T03:10:30.932Z,23.1
2018-03-07T03:11:20.978Z,23.1
2018-03-07T03:12:11.022Z,22.9
2018-03-07T03:13:00.804Z,22.9
2018-03-07T03:13:50.569Z,22.8
2018-03-07T03:14:41.183Z,22.9
2018-03-07T03:15:30.683Z,23.4
2018-03-07T03:16:21.620Z,23.8
2018-03-07T03:17:11.347Z,24.2
2018-03-07T03:18:00.619Z,24.6
2018-03-07T03:18:51.492Z,25
2018-03-07T03:19:41.826Z,25.4
2018-03-07T03:20:31.595Z,25.7
2018-03-07T03:21:21.894Z,25.9
2018-03-07T03:22:11.993Z,26.3
2018-03-07T03:23:01.489Z,26.4
2018-03-07T03:23:51.827Z,26.6
2018-03-07T03:24:41.643Z,26.8
2018-03-07T03:25:32.003Z,26.9
2018-03-07T03:26:21.441Z,27
2018-03-07T03:27:12.312Z,27.1
2018-03-07T03:28:01.524Z,27.2
2018-03-07T03:28:51.920Z,27.3
2018-03-07T03:29:41.682Z,27.3
2018-03-07T03:30:31.183Z,27.3
2018-03-07T03:31:21.858Z,27.4
2018-03-07T03:32:11.874Z,27.3
2018-03-07T03:33:02.501Z,27.4
2018-03-07T03:33:52.219Z,27.4
2018-03-07T03:34:42.557Z,27.3
2018-03-07T03:35:32.382Z,27.4
2018-03-07T03:36:21.298Z,27.3
2018-03-07T03:37:11.334Z,27.1
2018-03-07T03:38:02.292Z,25
2018-03-07T03:38:52.048Z,24.1
2018-03-07T03:39:41.875Z,23.6
2018-03-07T03:40:32.154Z,23.3
2018-03-07T03:41:21.811Z,23.1
2018-03-07T03:42:11.364Z,23
2018-03-07T03:43:03.141Z,22.9
2018-03-07T03:43:53.208Z,22.9
2018-03-07T03:44:43.502Z,22.9
2018-03-07T03:45:33.100Z,22.8
2018-03-07T03:46:22.791Z,23.2
2018-03-07T03:47:13.177Z,23.6
2018-03-07T03:48:03.521Z,24
2018-03-07T03:48:53.296Z,24.4
2018-03-07T03:49:42.838Z,24.8
2018-03-07T03:50:33.382Z,25.2
2018-03-07T03:51:23.963Z,25.5
2018-03-07T03:52:13.204Z,25.8
2018-03-07T03:53:03.833Z,26.1
2018-03-07T03:53:53.321Z,26.3
2018-03-07T03:54:43.867Z,25.8
2018-03-07T03:55:33.443Z,24.8
2018-03-07T03:56:23.485Z,24.6
2018-03-07T03:57:13.556Z,24.5
2018-03-07T03:58:04.200Z,24.4
2018-03-07T03:58:54.192Z,24.3
2018-03-07T03:59:43.963Z,24.2
2018-03-07T04:00:34.033Z,24.2
2018-03-07T04:01:23.603Z,24.1
2018-03-07T04:02:13.396Z,23.5
2018-03-07T04:03:03.248Z,23.2
2018-03-07T04:03:54.132Z,23.1
2018-03-07T04:04:44.321Z,22.9
2018-03-07T04:05:34.425Z,22.9
2018-03-07T04:06:25.040Z,22.9
2018-03-07T04:07:14.497Z,22.8
2018-03-07T04:08:03.725Z,22.8
2018-03-07T04:08:54.682Z,22.8
2018-03-07T04:09:45.210Z,23.1
2018-03-07T04:10:35.062Z,23.5
2018-03-07T04:11:24.883Z,23.9
2018-03-07T04:12:14.634Z,24.4
2018-03-07T04:13:04.149Z,24.8
2018-03-07T04:13:54.197Z,25.2
2018-03-07T04:14:45.114Z,25.5
2018-03-07T04:15:33.738Z,25.8
2018-03-07T04:16:24.711Z,26.1
2018-03-07T04:17:14.736Z,26.3
2018-03-07T04:18:05.024Z,24.8
2018-03-07T04:18:54.819Z,24.6
2018-03-07T04:19:45.345Z,24.5
2018-03-07T04:20:35.134Z,24.4
2018-03-07T04:21:25.779Z,24.3
2018-03-07T04:22:15.282Z,24.3
2018-03-07T04:23:05.316Z,24.2
2018-03-07T04:23:55.376Z,24.2
2018-03-07T04:24:45.742Z,24.2
2018-03-07T04:25:36.270Z,24
2018-03-07T04:26:25.832Z,23.4
2018-03-07T04:27:16.168Z,23.2
2018-03-07T04:28:05.978Z,23.1
2018-03-07T04:28:55.760Z,22.9
2018-03-07T04:29:46.075Z,22.9
2018-03-07T04:30:35.812Z,22.8
2018-03-07T04:31:26.704Z,22.8
2018-03-07T04:32:16.763Z,22.8
2018-03-07T04:33:06.593Z,22.8
2018-03-07T04:33:56.034Z,23.2
2018-03-07T04:34:46.144Z,23.6
2018-03-07T04:35:35.877Z,24
2018-03-07T04:36:25.079Z,24.4
2018-03-07T04:37:17.128Z,24.9
2018-03-07T04:38:06.331Z,25.2
2018-03-07T04:38:56.423Z,25.5
2018-03-07T04:39:46.487Z,25.8
2018-03-07T04:40:36.048Z,26.1
2018-03-07T04:41:26.842Z,25.8
2018-03-07T04:42:17.206Z,24.6
2018-03-07T04:43:06.979Z,24.6
2018-03-07T04:43:57.284Z,24.4
2018-03-07T04:44:47.083Z,24.3
2018-03-07T04:45:36.940Z,24.2
2018-03-07T04:46:27.472Z,24.1
2018-03-07T04:47:17.522Z,24.1
2018-03-07T04:48:07.699Z,24.1
2018-03-07T04:48:57.420Z,24.1
2018-03-07T04:49:47.670Z,23.9
2018-03-07T04:50:37.766Z,23.4
2018-03-07T04:51:27.845Z,23.1
2018-03-07T04:52:16.214Z,23
2018-03-07T04:53:06.298Z,22.9
2018-03-07T04:53:56.917Z,22.9
2018-03-07T04:54:46.960Z,22.9
2018-03-07T04:55:36.779Z,22.8
2018-03-07T04:56:25.721Z,22.8
2018-03-07T04:57:18.544Z,22.9
2018-03-07T04:58:08.279Z,23.3
2018-03-07T04:58:58.065Z,23.8
2018-03-07T04:59:47.814Z,24.3
2018-03-07T05:00:37.876Z,24.7
2018-03-07T05:01:28.579Z,25.1
2018-03-07T05:02:18.276Z,25.4
2018-03-07T05:03:08.909Z,25.8
2018-03-07T05:03:58.361Z,26
2018-03-07T05:04:48.989Z,26.3
2018-03-07T05:05:38.224Z,26.5
2018-03-07T05:06:28.558Z,26.6
2018-03-07T05:07:19.153Z,26.8
2018-03-07T05:08:08.997Z,26.9
2018-03-07T05:08:58.982Z,27
2018-03-07T05:09:48.816Z,27.1
2018-03-07T05:10:39.441Z,27.1
2018-03-07T05:11:29.176Z,27.2
2018-03-07T05:12:19.536Z,27.3
2018-03-07T05:13:08.716Z,27.3
2018-03-07T05:13:58.546Z,27.3
2018-03-07T05:14:49.425Z,27.3
2018-03-07T05:15:39.706Z,27.3
2018-03-07T05:16:29.518Z,27.3
2018-03-07T05:17:19.853Z,27.3
2018-03-07T05:18:09.447Z,27.2
2018-03-07T05:18:59.944Z,27.2
2018-03-07T05:19:49.731Z,27.1
2018-03-07T05:20:39.874Z,25
2018-03-07T05:21:30.174Z,24.1
2018-03-07T05:22:19.952Z,23.6
2018-03-07T05:23:10.267Z,23.3
2018-03-07T05:23:59.477Z,23.1
2018-03-07T05:24:50.167Z,22.9
2018-03-07T05:25:40.447Z,22.9
2018-03-07T05:26:29.082Z,22.8
2018-03-07T05:27:20.032Z,22.8
2018-03-07T05:28:10.070Z,23.3
2018-03-07T05:29:00.381Z,23.8
2018-03-07T05:29:50.462Z,24.3
2018-03-07T05:30:39.949Z,24.7
2018-03-07T05:31:30.597Z,25.1
2018-03-07T05:32:20.351Z,25.4
2018-03-07T05:33:10.931Z,25.8
2018-03-07T05:34:00.447Z,26
2018-03-07T05:34:51.061Z,26.3
2018-03-07T05:35:40.941Z,26.4
2018-03-07T05:36:30.902Z,26.6
2018-03-07T05:37:21.263Z,26.8
2018-03-07T05:38:11.326Z,26.9
2018-03-07T05:39:01.061Z,26.9
2018-03-07T05:39:50.874Z,27.1
2018-03-07T05:40:40.936Z,27.1
2018-03-07T05:41:30.949Z,27.1
2018-03-07T05:42:21.549Z,27.2
2018-03-07T05:43:11.391Z,27.3
2018-03-07T05:44:00.578Z,27.3
2018-03-07T05:44:50.898Z,27.3
2018-03-07T05:45:41.030Z,27.3
2018-03-07T05:46:31.581Z,27.3
2018-03-07T05:47:21.379Z,27.3
2018-03-07T05:48:11.422Z,27.3
2018-03-07T05:49:01.817Z,27.3
2018-03-07T05:49:51.544Z,26.3
2018-03-07T05:50:41.327Z,24.7
2018-03-07T05:51:31.943Z,23.9
2018-03-07T05:52:21.446Z,23.4
2018-03-07T05:53:11.800Z,23.2
2018-03-07T05:54:01.813Z,23
2018-03-07T05:54:51.893Z,22.9
2018-03-07T05:55:41.365Z,22.8
2018-03-07T05:56:32.015Z,22.8
2018-03-07T05:57:21.547Z,23.2
2018-03-07T05:58:12.650Z,23.6
2018-03-07T05:59:02.435Z,24.2
2018-03-07T05:59:52.233Z,24.6
2018-03-07T06:00:42.250Z,25.1
2018-03-07T06:01:32.405Z,25.4
2018-03-07T06:02:22.125Z,25.8
2018-03-07T06:03:13.013Z,26.1
2018-03-07T06:04:02.799Z,26.4
2018-03-07T06:04:52.012Z,26.6
2018-03-07T06:05:42.617Z,26.8
2018-03-07T06:06:32.105Z,26.9
2018-03-07T06:07:22.185Z,27.1
2018-03-07T06:08:12.802Z,27.2
2018-03-07T06:09:03.142Z,27.3
2018-03-07T06:09:53.192Z,27.4
2018-03-07T06:10:42.411Z,27.4
2018-03-07T06:11:32.737Z,27.5
2018-03-07T06:12:22.809Z,27.6
2018-03-07T06:13:12.599Z,27.6
2018-03-07T06:14:03.472Z,27.6
2018-03-07T06:14:53.218Z,27.6
2018-03-07T06:15:43.863Z,27.6
2018-03-07T06:16:33.369Z,27.6
2018-03-07T06:17:23.480Z,27.4
2018-03-07T06:18:14.014Z,25.2
2018-03-07T06:19:03.251Z,24.2
2018-03-07T06:19:53.569Z,23.6
2018-03-07T06:20:43.917Z,23.3
2018-03-07T06:21:33.282Z,23.1
2018-03-07T06:22:23.319Z,22.9
2018-03-07T06:23:13.764Z,22.8
2018-03-07T06:24:03.961Z,22.9
2018-03-07T06:24:53.151Z,23.4
2018-03-07T06:25:43.513Z,23.9
2018-03-07T06:26:34.103Z,24.4
2018-03-07T06:27:23.585Z,24.8
2018-03-07T06:28:13.924Z,25.2
2018-03-07T06:29:04.522Z,25.6
2018-03-07T06:29:53.803Z,25.9
2018-03-07T06:30:44.071Z,26.1
2018-03-07T06:31:34.468Z,26.4
2018-03-07T06:32:24.481Z,26.6
2018-03-07T06:33:15.066Z,26.8
2018-03-07T06:34:04.923Z,26.9
2018-03-07T06:34:54.665Z,27.1
2018-03-07T06:35:44.753Z,27.3
2018-03-07T06:36:34.802Z,27.3
2018-03-07T06:37:24.773Z,27.4
2018-03-07T06:38:14.273Z,27.4
2018-03-07T06:39:05.205Z,27.5
2018-03-07T06:39:53.175Z,27.6
2018-03-07T06:40:45.088Z,27.6
2018-03-07T06:41:34.282Z,27.6
2018-03-07T06:42:24.098Z,27.6
2018-03-07T06:43:14.008Z,27.6
2018-03-07T06:44:03.647Z,27.6
2018-03-07T06:44:54.035Z,27.6
2018-03-07T06:45:42.207Z,27.6
2018-03-07T06:46:33.752Z,27.6
2018-03-07T06:47:24.189Z,26
2018-03-07T06:48:14.785Z,24.6
2018-03-07T06:49:03.794Z,23.8
2018-03-07T06:49:53.959Z,23.4
2018-03-07T06:50:44.980Z,23.1
2018-03-07T06:51:34.062Z,22.9
2018-03-07T06:52:24.223Z,22.8
2018-03-07T06:53:15.945Z,22.7
2018-03-07T06:54:04.978Z,23.1
2018-03-07T06:54:55.224Z,23.6
2018-03-07T06:55:45.572Z,24.1
2018-03-07T06:56:33.607Z,24.6
2018-03-07T06:57:24.559Z,25.1
2018-03-07T06:58:15.687Z,25.4
2018-03-07T06:59:04.822Z,25.8
2018-03-07T06:59:56.892Z,26.1
2018-03-07T07:00:46.685Z,26.4
2018-03-07T07:01:36.759Z,26.6
2018-03-07T07:02:26.539Z,26.8
2018-03-07T07:03:16.864Z,26.9
2018-03-07T07:04:06.487Z,27.1
2018-03-07T07:04:56.389Z,27.3
2018-03-07T07:05:47.281Z,27.4
2018-03-07T07:06:37.396Z,27.4
2018-03-07T07:07:26.906Z,27.5
2018-03-07T07:08:16.948Z,27.6
2018-03-07T07:09:06.736Z,27.6
2018-03-07T07:09:56.491Z,27.6
2018-03-07T07:10:47.061Z,27.7
2018-03-07T07:11:37.797Z,27.7
2018-03-07T07:12:27.523Z,27.7
2018-03-07T07:13:17.014Z,27.7
2018-03-07T07:14:07.034Z,27.8
2018-03-07T07:14:55.493Z,27.7
2018-03-07T07:15:46.446Z,27.7
2018-03-07T07:16:35.938Z,27.7
2018-03-07T07:17:26.183Z,26.1
2018-03-07T07:18:16.311Z,24.6
2018-03-07T07:19:05.566Z,23.8
2018-03-07T07:19:56.345Z,23.4
2018-03-07T07:20:47.219Z,23.1
2018-03-07T07:21:37.900Z,22.9
2018-03-07T07:22:27.097Z,22.7
2018-03-07T07:23:17.245Z,22.7
2018-03-07T07:24:07.495Z,23.3
2018-03-07T07:24:57.081Z,23.8
2018-03-07T07:25:47.340Z,24.3
2018-03-07T07:26:38.480Z,24.8
2018-03-07T07:27:28.258Z,25.2
2018-03-07T07:28:18.603Z,25.5
2018-03-07T07:29:08.667Z,25.9
2018-03-07T07:29:57.883Z,26.2
2018-03-07T07:30:48.771Z,26.4
2018-03-07T07:31:38.798Z,26.7
2018-03-07T07:32:28.385Z,26.9
2018-03-07T07:33:17.053Z,27.1
2018-03-07T07:34:07.233Z,27.2
2018-03-07T07:34:57.208Z,27.3
2018-03-07T07:35:47.796Z,27.4
2018-03-07T07:36:38.245Z,27.5
2018-03-07T07:37:27.811Z,27.6
2018-03-07T07:38:18.550Z,27.6
2018-03-07T07:39:07.670Z,27.7
2018-03-07T07:39:58.436Z,27.7
2018-03-07T07:40:47.336Z,27.8
2018-03-07T07:41:38.600Z,27.8
2018-03-07T07:42:28.484Z,27.8
2018-03-07T07:43:20.070Z,27.8
2018-03-07T07:44:10.042Z,27.8
2018-03-07T07:44:59.485Z,27.8
2018-03-07T07:45:49.574Z,27.8
2018-03-07T07:46:39.612Z,27.8
2018-03-07T07:47:30.146Z,26.4
2018-03-07T07:48:20.267Z,24.7
2018-03-07T07:49:09.806Z,23.9
2018-03-07T07:50:00.091Z,23.4
2018-03-07T07:50:50.336Z,23.1
2018-03-07T07:51:39.949Z,22.8
2018-03-07T07:52:29.751Z,22.6
2018-03-07T07:53:20.365Z,22.6
2018-03-07T07:55:27.791Z,23.2
2018-03-07T07:55:37.898Z,24.4
2018-03-07T07:56:29.281Z,24.6
2018-03-07T07:57:19.316Z,24.9
2018-03-07T07:58:09.649Z,25.4
2018-03-07T07:58:59.437Z,25.7
2018-03-07T07:59:50.343Z,26.1
2018-03-07T08:00:40.136Z,26.3
2018-03-07T08:01:28.894Z,26.5
2018-03-07T08:02:17.773Z,26.8
2018-03-07T08:03:09.788Z,26.9
2018-03-07T08:03:58.975Z,27.1
2018-03-07T08:05:12.627Z,27.4
2018-03-07T08:06:03.886Z,27.4
2018-03-07T08:06:53.598Z,27.4
2018-03-07T08:07:42.696Z,27.6
2018-03-07T08:08:46.050Z,27.6
2018-03-07T08:09:24.284Z,27.6
2018-03-07T08:10:13.338Z,27.6
2018-03-07T08:11:02.809Z,27.7
2018-03-07T08:12:34.827Z,27.7
2018-03-07T08:12:42.098Z,27.7
2018-03-07T08:13:34.938Z,27.7
2018-03-07T08:14:24.944Z,27.7
2018-03-07T08:15:14.625Z,27.7
2018-03-07T08:16:56.153Z,25.4
2018-03-07T08:17:46.243Z,25.1
2018-03-07T08:18:36.267Z,24
2018-03-07T08:19:26.631Z,23.4
2018-03-07T08:20:17.049Z,23.1
2018-03-07T08:21:06.170Z,22.8
2018-03-07T08:21:56.559Z,22.7
2018-03-07T08:22:47.152Z,22.6
2018-03-07T08:23:36.929Z,23.1
2018-03-07T08:24:27.274Z,23.6
2018-03-07T08:25:17.032Z,24.1
2018-03-07T08:26:07.377Z,24.6
2018-03-07T08:26:57.479Z,25
2018-03-07T08:27:47.637Z,25.4
2018-03-07T08:28:37.599Z,25.8
2018-03-07T08:29:27.652Z,26.1
2018-03-07T08:30:17.135Z,26.4
2018-03-07T08:31:07.777Z,26.7
2018-03-07T08:31:57.222Z,26.9
2018-03-07T08:32:47.302Z,27.1
2018-03-07T08:33:37.654Z,27.3
2018-03-07T08:34:27.779Z,27.4
2018-03-07T08:35:17.752Z,27.5
2018-03-07T08:36:07.841Z,27.6
2018-03-07T08:36:57.279Z,27.7
2018-03-07T08:37:47.937Z,27.8
2018-03-07T08:39:28.044Z,27.9
2018-03-07T08:40:17.807Z,27.9
2018-03-07T08:41:07.881Z,27.9
2018-03-07T08:41:58.506Z,27.9
2018-03-07T08:42:48.263Z,28
2018-03-07T08:43:38.625Z,27.9
2018-03-07T08:44:28.224Z,28
2018-03-07T08:45:18.421Z,28
2018-03-07T08:46:09.188Z,27.9
2018-03-07T08:46:57.981Z,27.9
2018-03-07T08:47:48.654Z,25.3
2018-03-07T08:48:38.941Z,24.2
2018-03-07T08:49:28.973Z,23.6
2018-03-07T08:50:19.096Z,23.1
2018-03-07T08:51:08.534Z,22.9
2018-03-07T08:51:59.171Z,22.6
2018-03-07T08:52:48.643Z,22.5
2018-03-07T08:53:38.722Z,23
2018-03-07T08:54:28.026Z,23.6
2018-03-07T08:55:19.143Z,24.1
2018-03-07T08:56:09.185Z,24.6
2018-03-07T08:56:58.346Z,25.1
2018-03-07T08:57:49.362Z,25.5
2018-03-07T08:58:39.360Z,25.9
2018-03-07T08:59:26.217Z,26.2
2018-03-07T09:00:19.175Z,26.4
2018-03-07T09:01:08.960Z,26.8
2018-03-07T09:01:58.138Z,27
2018-03-07T09:02:47.933Z,27.2
2018-03-07T09:03:37.403Z,27.3
2018-03-07T09:04:28.618Z,27.5
2018-03-07T09:05:19.370Z,27.6
2018-03-07T09:06:08.864Z,27.7
2018-03-07T09:07:49.145Z,27.9
2018-03-07T09:08:40.066Z,27.9
2018-03-07T09:09:29.799Z,27.9
2018-03-07T09:10:20.693Z,28
2018-03-07T09:11:10.497Z,28
2018-03-07T09:11:59.985Z,28.1
2018-03-07T09:12:49.797Z,28.1
2018-03-07T09:13:40.390Z,28.1
2018-03-07T09:14:30.480Z,28.1
2018-03-07T09:15:20.521Z,28.1
2018-03-07T09:16:10.056Z,28
2018-03-07T09:17:00.929Z,28
2018-03-07T09:17:50.956Z,26.3
2018-03-07T09:18:40.748Z,24.6
2018-03-07T09:19:29.632Z,23.8
2018-03-07T09:20:20.917Z,23.3
2018-03-07T09:21:11.279Z,22.9
2018-03-07T09:22:01.298Z,22.6
2018-03-07T09:22:51.361Z,22.5
2018-03-07T09:23:40.579Z,23
2018-03-07T09:24:30.980Z,23.6
2018-03-07T09:25:20.064Z,24.1
2018-03-07T09:26:10.540Z,24.6
2018-03-07T09:27:01.364Z,25.1
2018-03-07T09:27:51.137Z,25.6
2018-03-07T09:28:41.198Z,26
2018-03-07T09:29:30.735Z,26.4
2018-03-07T09:30:21.318Z,26.7
2018-03-07T09:31:11.324Z,26.9
2018-03-07T09:32:01.543Z,27.2
2018-03-07T09:32:52.067Z,27.4
2018-03-07T09:33:41.243Z,27.5
2018-03-07T09:34:31.703Z,27.6
2018-03-07T09:35:21.623Z,27.8
2018-03-07T09:36:10.953Z,27.9
2018-03-07T09:37:01.478Z,27.9
2018-03-07T09:37:52.380Z,28
2018-03-07T09:38:42.177Z,28.1
2018-03-07T09:39:31.910Z,28.1
2018-03-07T09:40:22.545Z,28.1
2018-03-07T09:41:12.055Z,28.2
2018-03-07T09:42:02.418Z,28.1
2018-03-07T09:42:52.428Z,28.2
2018-03-07T09:43:42.790Z,28.1
2018-03-07T09:44:32.608Z,28.1
2018-03-07T09:45:22.345Z,28.1
2018-03-07T09:46:12.879Z,28.1
2018-03-07T09:47:02.187Z,28.1
2018-03-07T09:47:51.780Z,28
2018-03-07T09:48:41.831Z,28
2018-03-07T09:49:32.149Z,27.9
2018-03-07T09:50:22.250Z,27.9
2018-03-07T09:51:12.716Z,27.9
2018-03-07T09:52:01.140Z,27.9
2018-03-07T09:54:32.599Z,27.8
2018-03-07T09:55:21.678Z,27.7
2018-03-07T09:56:12.150Z,27.6
2018-03-07T09:57:01.338Z,27.6
2018-03-07T09:57:51.769Z,27.6
2018-03-07T09:58:42.904Z,27.5
2018-03-07T09:59:32.383Z,27.4
2018-03-07T10:00:20.978Z,27.4
2018-03-07T10:01:11.247Z,27.4
2018-03-07T10:02:02.228Z,27.3
2018-03-07T10:02:51.525Z,27.3
2018-03-07T10:03:42.651Z,27.2
2018-03-07T10:04:31.854Z,27.1
2018-03-07T10:05:23.301Z,27.1
2018-03-07T10:06:12.812Z,27
2018-03-07T10:07:03.924Z,25.1
2018-03-07T10:07:53.701Z,23.9
2018-03-07T10:08:43.184Z,23.3
2018-03-07T10:09:34.109Z,22.9
2018-03-07T10:10:23.642Z,22.7
2018-03-07T10:11:13.399Z,22.5
2018-03-07T10:12:04.523Z,22.4
2018-03-07T10:12:53.528Z,22.3
2018-03-07T10:13:44.387Z,23
2018-03-07T10:14:34.096Z,23.7
2018-03-07T10:15:24.038Z,24.3
2018-03-07T10:17:47.941Z,24.8
2018-03-07T10:17:59.261Z,26.1
2018-03-07T10:18:48.815Z,26.1
2018-03-07T10:19:38.941Z,26.5
2018-03-07T10:20:29.222Z,26.8
2018-03-07T10:21:19.304Z,27
2018-03-07T10:22:09.858Z,27.2
2018-03-07T10:23:00.215Z,27.4
2018-03-07T10:23:50.237Z,27.5
2018-03-07T10:24:39.738Z,27.6
2018-03-07T10:25:30.074Z,27.6
2018-03-07T10:26:20.185Z,27.8
2018-03-07T10:27:09.933Z,27.8
2018-03-07T10:30:29.697Z,27.9
2018-03-07T10:31:20.216Z,27.9
2018-03-07T10:36:20.257Z,27.8
2018-03-07T10:37:10.635Z,27.8
2018-03-07T10:38:00.755Z,27.8
2018-03-07T10:38:51.039Z,27.7
2018-03-07T10:39:41.115Z,27.7
2018-03-07T10:40:31.172Z,27.6
2018-03-07T10:41:20.614Z,27.6
2018-03-07T10:42:10.951Z,27.5
2018-03-07T10:43:01.584Z,27.5
2018-03-07T10:43:50.785Z,27.4
2018-03-07T10:44:41.742Z,27.4
2018-03-07T10:45:31.764Z,27.3
2018-03-07T10:46:21.542Z,27.3
2018-03-07T10:47:12.049Z,27.2
2018-03-07T10:48:01.737Z,27.2
2018-03-07T10:48:52.008Z,27.1
2018-03-07T10:49:42.089Z,27.1
2018-03-07T10:50:31.081Z,27
2018-03-07T10:51:21.649Z,26.9
2018-03-07T10:52:09.727Z,26.9
2018-03-07T10:53:00.479Z,26.9
2018-03-07T10:53:52.109Z,26.8
2018-03-07T10:54:40.973Z,26.8
2018-03-07T10:55:31.257Z,26.7
2018-03-07T10:56:20.823Z,26.6
2018-03-07T10:57:10.885Z,25.1
2018-03-07T10:58:01.128Z,23.9
2018-03-07T10:58:52.728Z,23.3
2018-03-07T10:59:42.746Z,22.9
2018-03-07T11:00:32.824Z,22.6
2018-03-07T11:01:22.028Z,22.4
2018-03-07T11:02:12.481Z,22.3
2018-03-07T11:03:02.538Z,22.2
2018-03-07T11:03:52.770Z,22.2
2018-03-07T11:04:42.862Z,22.9
2018-03-07T11:05:33.184Z,23.5
2018-03-07T11:06:22.963Z,24.2
2018-03-07T11:07:13.295Z,24.8
2018-03-07T11:08:03.078Z,25.2
2018-03-07T11:08:53.455Z,25.7
2018-03-07T11:09:42.593Z,26.1
2018-03-07T11:10:36.257Z,26.4
2018-03-07T11:11:23.262Z,26.7
2018-03-07T11:12:13.340Z,26.9
2018-03-07T11:13:03.162Z,27.1
2018-03-07T11:13:53.684Z,27.2
2018-03-07T11:14:43.529Z,27.3
2018-03-07T11:15:33.043Z,27.4
2018-03-07T11:16:23.377Z,27.4
2018-03-07T11:17:13.720Z,27.4
2018-03-07T11:18:03.470Z,27.5
2018-03-07T11:18:53.075Z,27.5
2018-03-07T11:19:43.597Z,27.6
2018-03-07T11:20:32.689Z,27.6
2018-03-07T11:21:21.070Z,27.5